Time;durP1;ratioP1;P1;durP2;ratioP2;P2;SDS_P1;SDS_P2;PMS_P1;PMS_P2;Temp;Humidity;BMP_temperature;BMP_pressure;BME280_temperature;BME280_humidity;BME280_pressure;Samples;Min_cycle;Max_cycle;Signal;HPM_P1;HPM_P2
2022/09/30 00:00:26;;;;;;;;;;;;;;;21.84;48.70;98246.50;4502499;31;34712;-85
2022/09/30 00:02:54;;;;;;;;;;;;;;;21.72;49.09;98241.81;4506399;31;34303;-86
2022/09/30 00:05:21;;;;;;;;;;;;;;;22.11;48.09;98231.09;4510920;31;34156;-85
2022/09/30 00:07:49;;;;;;;;;;;;;;;21.93;48.28;98247.84;4504890;31;33909;-94
2022/09/30 00:10:16;;;;;;;;;;;;;;;22.22;47.81;98234.13;4508195;31;33920;-86
2022/09/30 00:12:43;;;;;;;;;;;;;;;22.20;47.75;98228.06;4508131;31;33806;-87
2022/09/30 00:15:10;;;;;;;;;;;;;;;22.36;47.30;98229.94;4502577;31;33652;-86
2022/09/30 00:17:38;;;;;;;;;;;;;;;22.38;47.30;98220.16;4501118;31;35224;-87
2022/09/30 00:20:05;;;;;;;;;;;;;;;22.34;47.29;98232.66;4501136;31;33917;-87
2022/09/30 00:22:32;;;;;;;;;;;;;;;21.95;48.16;98230.16;4500651;31;33473;-91
2022/09/30 00:25:00;;;;;;;;;;;;;;;21.93;47.74;98232.00;4505608;31;35040;-86
2022/09/30 00:27:27;;;;;;;;;;;;;;;21.77;48.25;98232.72;4516437;31;34899;-89
2022/09/30 00:29:55;;;;;;;;;;;;;;;22.08;47.79;98225.97;4499805;31;33911;-96
2022/09/30 00:32:22;;;;;;;;;;;;;;;21.86;48.20;98218.28;4512410;31;33214;-86
2022/09/30 00:34:49;;;;;;;;;;;;;;;21.52;49.01;98227.78;4512237;31;33951;-87
2022/09/30 00:37:16;;;;;;;;;;;;;;;21.73;48.69;98219.78;4504708;31;34384;-85
2022/09/30 00:39:44;;;;;;;;;;;;;;;21.93;48.05;98214.38;4516370;31;33944;-86
2022/09/30 00:42:13;;;;;;;;;;;;;;;21.94;48.12;98208.19;4499847;31;32876;-86
2022/09/30 00:44:44;;;;;;;;;;;;;;;21.63;48.94;98219.38;4490114;31;33879;-88
2022/09/30 00:47:21;;;;;;;;;;;;;;;21.88;48.30;98208.47;4514056;31;35366;-86
2022/09/30 00:49:48;;;;;;;;;;;;;;;21.59;48.93;98217.78;4504503;31;33949;-87
2022/09/30 00:52:15;;;;;;;;;;;;;;;21.62;49.04;98217.63;4499950;31;33148;-96
2022/09/30 00:54:43;;;;;;;;;;;;;;;21.93;48.27;98205.59;4513048;31;35669;-92
2022/09/30 00:57:10;;;;;;;;;;;;;;;22.19;47.58;98207.00;4519919;31;35108;-87
2022/09/30 00:59:42;;;;;;;;;;;;;;;21.87;48.21;98207.63;4496406;31;34007;-87
2022/09/30 01:02:12;;;;;;;;;;;;;;;21.98;48.08;98208.91;4509631;31;33106;-96
2022/09/30 01:04:41;;;;;;;;;;;;;;;22.13;47.63;98208.16;4488715;31;34216;-87
2022/09/30 01:07:08;;;;;;;;;;;;;;;22.19;47.34;98210.50;4506869;31;34400;-86
2022/09/30 01:09:36;;;;;;;;;;;;;;;21.90;48.23;98216.34;4507866;31;34269;-96
2022/09/30 01:12:04;;;;;;;;;;;;;;;21.11;50.47;98221.72;4500957;31;34052;-96
2022/09/30 01:14:31;;;;;;;;;;;;;;;21.31;49.73;98211.13;4510759;31;35123;-87
2022/09/30 01:17:05;;;;;;;;;;;;;;;20.37;52.37;98218.75;4522474;31;35194;-95
2022/09/30 01:19:47;;;;;;;;;;;;;;;20.51;51.65;98220.84;4511079;31;34885;-86
2022/09/30 01:22:27;;;;;;;;;;;;;;;21.06;50.62;98223.69;4497099;31;33189;-96
2022/09/30 01:25:26;;;;;;;;;;;;;;;19.99;53.09;98229.09;4505856;31;34698;-87
2022/09/30 01:27:54;;;;;;;;;;;;;;;19.44;55.23;98213.69;4477530;31;34335;-88
2022/09/30 01:30:22;;;;;;;;;;;;;;;18.99;56.76;98202.28;4508640;31;33954;-90
2022/09/30 01:32:49;;;;;;;;;;;;;;;20.29;52.96;98224.34;4510247;31;32515;-96
2022/09/30 01:35:35;;;;;;;;;;;;;;;18.96;56.75;98221.62;4513982;31;35148;-96
2022/09/30 01:38:09;;;;;;;;;;;;;;;19.32;55.42;98222.03;4512576;31;34265;-88
2022/09/30 01:40:47;;;;;;;;;;;;;;;18.80;57.09;98233.59;4510210;31;34211;-94
2022/09/30 01:43:14;;;;;;;;;;;;;;;19.29;55.81;98227.41;4512223;31;33163;-87
2022/09/30 01:45:43;;;;;;;;;;;;;;;19.49;55.65;98217.91;4513293;31;34333;-87
2022/09/30 01:48:19;;;;;;;;;;;;;;;19.33;56.19;98218.50;4507134;31;34169;-86
2022/09/30 01:50:57;;;;;;;;;;;;;;;17.79;60.29;98211.53;4513331;31;33900;-86
2022/09/30 01:53:44;;;;;;;;;;;;;;;18.20;59.60;98212.84;4521578;31;33482;-94
2022/09/30 01:56:15;;;;;;;;;;;;;;;17.81;61.60;98208.91;4520359;31;34296;-90
2022/09/30 01:58:45;;;;;;;;;;;;;;;18.43;59.78;98204.19;4511366;31;35093;-96
2022/09/30 02:01:15;;;;;;;;;;;;;;;18.29;59.95;98201.16;4508494;31;33684;-85
2022/09/30 02:03:44;;;;;;;;;;;;;;;18.24;59.67;98201.31;4521579;31;34211;-95
2022/09/30 02:06:12;;;;;;;;;;;;;;;18.16;60.51;98210.37;4514933;31;35137;-96
2022/09/30 02:08:40;;;;;;;;;;;;;;;18.65;59.00;98199.03;4508962;31;33955;-95
2022/09/30 02:11:09;;;;;;;;;;;;;;;18.80;58.53;98192.44;4507560;31;34895;-93
2022/09/30 02:13:46;;;;;;;;;;;;;;;17.60;62.27;98205.13;4508224;31;34669;-96
2022/09/30 02:16:14;;;;;;;;;;;;;;;17.84;61.96;98196.53;4515746;31;35147;-95
2022/09/30 02:18:46;;;;;;;;;;;;;;;18.26;60.76;98190.78;4495897;31;34177;-96
2022/09/30 02:21:14;;;;;;;;;;;;;;;19.47;57.15;98209.19;4512020;31;33893;-96
2022/09/30 02:23:42;;;;;;;;;;;;;;;19.97;55.50;98217.78;4507569;31;33014;-86
2022/09/30 02:26:17;;;;;;;;;;;;;;;20.49;53.96;98222.66;4515033;31;35060;-90
2022/09/30 02:28:45;;;;;;;;;;;;;;;19.92;55.19;98220.56;4521704;31;35236;-86
2022/09/30 02:31:12;;;;;;;;;;;;;;;19.31;57.35;98219.44;4513703;31;34140;-86
2022/09/30 02:33:44;;;;;;;;;;;;;;;19.86;55.82;98204.22;4508364;31;33461;-96
2022/09/30 02:36:15;;;;;;;;;;;;;;;18.96;58.39;98196.19;4514401;31;33072;-93
2022/09/30 02:38:43;;;;;;;;;;;;;;;20.26;54.60;98166.56;4502502;31;35186;-94
2022/09/30 02:41:29;;;;;;;;;;;;;;;19.96;55.40;98149.44;4505825;31;34796;-86
2022/09/30 02:43:56;;;;;;;;;;;;;;;19.97;55.49;98161.69;4490923;31;33418;-87
2022/09/30 02:46:25;;;;;;;;;;;;;;;20.38;54.25;98168.69;4511753;31;34039;-86
2022/09/30 02:48:58;;;;;;;;;;;;;;;20.84;53.09;98177.25;4507743;31;34286;-86
2022/09/30 02:51:33;;;;;;;;;;;;;;;19.94;55.01;98175.81;4513076;31;34257;-96
2022/09/30 02:54:24;;;;;;;;;;;;;;;19.31;57.35;98175.62;4523273;31;33338;-86
2022/09/30 02:56:51;;;;;;;;;;;;;;;20.06;55.12;98159.50;4515866;31;32693;-87
2022/09/30 02:59:19;;;;;;;;;;;;;;;20.57;53.70;98166.16;4509504;31;34925;-96
2022/09/30 03:01:46;;;;;;;;;;;;;;;20.77;52.96;98160.00;4514685;31;33705;-87
2022/09/30 03:04:14;;;;;;;;;;;;;;;20.87;52.74;98156.03;4520439;31;33044;-96
2022/09/30 03:06:41;;;;;;;;;;;;;;;20.55;53.35;98151.34;4511087;31;34748;-86
2022/09/30 03:09:09;;;;;;;;;;;;;;;20.70;53.42;98153.28;4503531;31;34081;-86
2022/09/30 03:11:37;;;;;;;;;;;;;;;21.13;52.18;98157.47;4508137;31;34327;-95
2022/09/30 03:14:13;;;;;;;;;;;;;;;20.33;54.46;98154.00;4487076;31;33460;-94
2022/09/30 03:16:59;;;;;;;;;;;;;;;20.45;54.07;98157.88;4506259;31;34999;-96
2022/09/30 03:20:02;;;;;;;;;;;;;;;20.10;55.11;98152.34;4523891;31;34394;-95
2022/09/30 03:22:32;;;;;;;;;;;;;;;20.10;55.32;98153.19;4496091;31;33492;-96
2022/09/30 03:24:59;;;;;;;;;;;;;;;18.18;61.72;98177.06;4521962;31;33176;-96
2022/09/30 03:27:26;;;;;;;;;;;;;;;18.06;62.51;98183.56;4509934;31;33489;-91
2022/09/30 03:30:06;;;;;;;;;;;;;;;18.26;61.78;98182.94;4496652;31;33619;-94
2022/09/30 03:32:40;;;;;;;;;;;;;;;17.34;65.14;98198.06;4518057;31;34947;-86
2022/09/30 03:35:22;;;;;;;;;;;;;;;19.22;59.15;98183.03;4515158;31;33164;-96
2022/09/30 03:37:55;;;;;;;;;;;;;;;19.21;58.85;98179.53;4507077;31;33987;-87
2022/09/30 03:40:31;;;;;;;;;;;;;;;18.61;60.38;98183.47;4513087;31;34312;-95
2022/09/30 03:43:03;;;;;;;;;;;;;;;17.66;63.83;98189.22;4501993;31;33437;-94
2022/09/30 03:45:39;;;;;;;;;;;;;;;17.56;64.81;98190.41;4508787;31;33413;-94
2022/09/30 03:48:06;;;;;;;;;;;;;;;17.25;65.42;98199.19;4503155;31;34275;-92
2022/09/30 03:50:35;;;;;;;;;;;;;;;17.79;64.06;98180.09;4515509;31;33867;-90
2022/09/30 03:53:03;;;;;;;;;;;;;;;17.25;65.29;98186.97;4518885;31;33993;-86
2022/09/30 03:55:32;;;;;;;;;;;;;;;16.99;66.35;98186.87;4509195;31;33103;-95
2022/09/30 03:57:59;;;;;;;;;;;;;;;16.25;68.99;98188.84;4517252;31;34861;-94
2022/09/30 04:00:26;;;;;;;;;;;;;;;17.08;66.38;98198.81;4520728;31;34197;-86
2022/09/30 04:02:54;;;;;;;;;;;;;;;16.91;67.32;98192.31;4511085;31;34871;-96
2022/09/30 04:05:24;;;;;;;;;;;;;;;17.16;66.20;98197.72;4517077;31;33355;-89
2022/09/30 04:07:51;;;;;;;;;;;;;;;17.26;65.92;98190.44;4511869;31;34440;-96
2022/09/30 04:10:18;;;;;;;;;;;;;;;16.96;66.71;98198.28;4503758;31;33826;-92
2022/09/30 04:12:45;;;;;;;;;;;;;;;16.94;67.09;98200.09;4503645;31;33358;-89
2022/09/30 04:15:13;;;;;;;;;;;;;;;17.35;66.10;98195.41;4513412;31;34270;-88
2022/09/30 04:17:40;;;;;;;;;;;;;;;16.99;66.79;98198.19;4499199;31;34931;-92
2022/09/30 04:20:07;;;;;;;;;;;;;;;17.55;64.96;98197.41;4504837;31;35233;-91
2022/09/30 04:22:34;;;;;;;;;;;;;;;17.48;65.34;98199.38;4507632;31;32687;-94
2022/09/30 04:25:02;;;;;;;;;;;;;;;17.89;64.28;98197.25;4511082;31;32201;-91
2022/09/30 04:27:29;;;;;;;;;;;;;;;18.01;63.45;98189.88;4513571;31;34503;-96
2022/09/30 04:29:56;;;;;;;;;;;;;;;17.49;64.78;98195.84;4514796;31;35201;-88
2022/09/30 04:32:27;;;;;;;;;;;;;;;17.55;65.36;98201.81;4512437;31;34944;-94
2022/09/30 04:34:57;;;;;;;;;;;;;;;16.98;66.99;98203.50;4508426;31;31701;-95
2022/09/30 04:37:27;;;;;;;;;;;;;;;17.25;66.46;98215.78;4514969;31;34031;-96
2022/09/30 04:39:54;;;;;;;;;;;;;;;18.40;62.36;98214.78;4502814;31;35149;-88
2022/09/30 04:42:21;;;;;;;;;;;;;;;17.30;66.08;98231.34;4499938;31;33417;-96
2022/09/30 04:44:48;;;;;;;;;;;;;;;18.71;61.24;98222.50;4512732;31;31861;-95
2022/09/30 04:47:15;;;;;;;;;;;;;;;18.79;60.91;98232.72;4523759;31;34333;-95
2022/09/30 04:49:43;;;;;;;;;;;;;;;18.18;62.67;98235.66;4515687;31;32995;-91
2022/09/30 04:52:10;;;;;;;;;;;;;;;19.16;59.54;98232.25;4498587;31;33386;-90
2022/09/30 04:54:38;;;;;;;;;;;;;;;18.08;63.11;98234.22;4499565;31;31834;-91
2022/09/30 04:57:05;;;;;;;;;;;;;;;18.64;61.05;98231.47;4487379;31;33431;-90
2022/09/30 04:59:32;;;;;;;;;;;;;;;18.60;60.79;98237.75;4500155;31;35208;-91
2022/09/30 05:02:00;;;;;;;;;;;;;;;18.29;61.90;98231.78;4503387;31;34864;-95
2022/09/30 05:04:28;;;;;;;;;;;;;;;18.45;61.92;98235.63;4516590;31;33412;-90
2022/09/30 05:06:56;;;;;;;;;;;;;;;18.43;61.64;98234.81;4515585;31;35461;-96
2022/09/30 05:09:23;;;;;;;;;;;;;;;18.03;63.27;98241.37;4493988;31;33162;-89
2022/09/30 05:11:50;;;;;;;;;;;;;;;17.69;64.70;98249.41;4522690;31;34492;-87
2022/09/30 05:14:18;;;;;;;;;;;;;;;18.54;61.89;98239.72;4531327;31;33053;-88
2022/09/30 05:16:45;;;;;;;;;;;;;;;18.94;60.33;98236.56;4528879;31;34189;-89
2022/09/30 05:19:12;;;;;;;;;;;;;;;18.38;62.07;98240.22;4527846;31;34404;-89
2022/09/30 05:21:43;;;;;;;;;;;;;;;18.62;61.57;98240.31;4520433;31;33722;-91
2022/09/30 05:24:10;;;;;;;;;;;;;;;17.59;64.71;98246.22;4510953;31;32710;-89
2022/09/30 05:26:39;;;;;;;;;;;;;;;18.66;61.64;98237.50;4521514;31;35078;-90
2022/09/30 05:29:06;;;;;;;;;;;;;;;19.18;60.07;98240.94;4521703;31;34808;-92
2022/09/30 05:31:33;;;;;;;;;;;;;;;19.04;60.25;98252.84;4501337;31;34862;-89
2022/09/30 05:34:00;;;;;;;;;;;;;;;18.11;63.29;98249.00;4514175;31;33455;-88
2022/09/30 05:36:28;;;;;;;;;;;;;;;17.59;65.04;98259.31;4511350;31;34003;-89
2022/09/30 05:38:55;;;;;;;;;;;;;;;17.80;64.99;98252.56;4511110;31;34432;-94
2022/09/30 05:41:23;;;;;;;;;;;;;;;16.82;68.35;98254.53;4504090;31;33707;-89
2022/09/30 05:43:50;;;;;;;;;;;;;;;17.48;66.40;98258.78;4491414;31;32132;-96
2022/09/30 05:46:18;;;;;;;;;;;;;;;17.13;67.76;98263.28;4505955;31;34161;-88
2022/09/30 05:48:45;;;;;;;;;;;;;;;18.17;64.16;98254.91;4509145;31;34539;-88
2022/09/30 05:51:13;;;;;;;;;;;;;;;17.78;65.07;98262.28;4505706;31;34014;-89
2022/09/30 05:53:41;;;;;;;;;;;;;;;18.20;63.38;98260.06;4504551;31;33150;-90
2022/09/30 05:56:08;;;;;;;;;;;;;;;17.91;64.27;98265.34;4489400;31;34220;-95
2022/09/30 05:58:36;;;;;;;;;;;;;;;19.00;61.24;98251.25;4502910;31;34550;-90
2022/09/30 06:01:06;;;;;;;;;;;;;;;19.64;58.69;98248.91;4516749;31;34742;-88
2022/09/30 06:03:39;;;;;;;;;;;;;;;19.08;60.65;98252.69;4526614;31;33191;-96
2022/09/30 06:06:06;;;;;;;;;;;;;;;18.35;63.10;98263.94;4505449;31;33980;-89
2022/09/30 06:08:34;;;;;;;;;;;;;;;19.31;59.89;98266.75;4513082;31;34601;-90
2022/09/30 06:11:06;;;;;;;;;;;;;;;19.61;58.63;98254.22;4525168;31;34753;-90
2022/09/30 06:13:33;;;;;;;;;;;;;;;19.06;60.05;98267.66;4527410;31;33201;-89
2022/09/30 06:16:00;;;;;;;;;;;;;;;19.52;58.97;98257.22;4525580;31;33890;-90
2022/09/30 06:18:29;;;;;;;;;;;;;;;19.24;59.81;98260.84;4497717;26;34890;-92
2022/09/30 06:20:57;;;;;;;;;;;;;;;19.66;58.51;98262.81;4479636;32;34928;-89
2022/09/30 06:23:25;;;;;;;;;;;;;;;20.32;56.78;98268.13;4475672;32;33344;-90
2022/09/30 06:25:52;;;;;;;;;;;;;;;20.49;56.03;98265.66;4472670;32;33536;-89
2022/09/30 06:28:20;;;;;;;;;;;;;;;20.77;55.15;98265.38;4477206;32;34076;-89
2022/09/30 06:30:47;;;;;;;;;;;;;;;20.52;55.62;98285.75;4482229;32;34816;-90
2022/09/30 06:33:15;;;;;;;;;;;;;;;21.06;54.42;98277.28;4483761;32;33912;-89
2022/09/30 06:35:42;;;;;;;;;;;;;;;21.50;53.21;98286.78;4458581;32;34977;-89
2022/09/30 06:38:10;;;;;;;;;;;;;;;21.51;53.29;98291.97;4476824;32;35208;-96
2022/09/30 06:40:37;;;;;;;;;;;;;;;21.60;53.21;98290.72;4456118;32;34169;-92
2022/09/30 06:43:05;;;;;;;;;;;;;;;21.75;52.56;98291.78;4459065;32;33096;-88
2022/09/30 06:45:34;;;;;;;;;;;;;;;21.74;52.64;98300.63;4458310;32;33819;-88
2022/09/30 06:48:02;;;;;;;;;;;;;;;21.76;52.54;98298.78;4444684;32;34491;-88
2022/09/30 06:50:30;;;;;;;;;;;;;;;22.29;50.88;98288.34;4470646;32;33879;-89
2022/09/30 06:52:58;;;;;;;;;;;;;;;21.49;53.07;98300.91;4474090;32;33380;-89
2022/09/30 06:55:26;;;;;;;;;;;;;;;21.78;52.38;98305.72;4475410;32;34240;-88
2022/09/30 06:57:54;;;;;;;;;;;;;;;21.70;52.45;98305.19;4465326;32;34047;-94
2022/09/30 07:00:22;;;;;;;;;;;;;;;22.21;51.30;98306.34;4447858;32;33609;-90
2022/09/30 07:02:49;;;;;;;;;;;;;;;21.27;53.50;98312.38;4470167;32;34128;-89
2022/09/30 07:05:16;;;;;;;;;;;;;;;21.26;53.57;98315.94;4470381;32;34955;-88
2022/09/30 07:07:43;;;;;;;;;;;;;;;22.03;51.84;98315.09;4444994;32;34023;-90
2022/09/30 07:10:11;;;;;;;;;;;;;;;21.75;52.25;98319.03;4470979;32;34676;-89
2022/09/30 07:12:38;;;;;;;;;;;;;;;20.82;54.83;98315.22;4477370;32;33174;-95
2022/09/30 07:15:05;;;;;;;;;;;;;;;21.71;52.48;98321.88;4485312;32;34534;-90
2022/09/30 07:17:39;;;;;;;;;;;;;;;21.72;52.55;98323.59;4490333;32;34418;-91
2022/09/30 07:20:07;;;;;;;;;;;;;;;21.73;52.70;98328.78;4476728;32;34170;-89
2022/09/30 07:22:34;;;;;;;;;;;;;;;21.94;51.87;98334.03;4489914;32;33379;-90
2022/09/30 07:25:02;;;;;;;;;;;;;;;22.30;50.89;98328.78;4491514;32;33690;-89
2022/09/30 07:27:31;;;;;;;;;;;;;;;22.20;51.26;98333.69;4472985;32;34359;-96
2022/09/30 07:29:59;;;;;;;;;;;;;;;21.72;52.27;98339.41;4490639;32;34918;-89
2022/09/30 07:32:46;;;;;;;;;;;;;;;21.42;53.05;98336.38;4472623;32;33881;-93
2022/09/30 07:35:13;;;;;;;;;;;;;;;21.56;52.93;98349.81;4487789;32;34133;-89
2022/09/30 07:37:41;;;;;;;;;;;;;;;21.82;52.36;98345.97;4489378;32;35341;-89
2022/09/30 07:40:08;;;;;;;;;;;;;;;21.78;52.56;98350.56;4474893;32;34222;-93
2022/09/30 07:42:36;;;;;;;;;;;;;;;22.22;51.44;98346.78;4490646;32;33078;-89
2022/09/30 07:45:03;;;;;;;;;;;;;;;21.84;52.51;98352.91;4476671;32;34171;-94
2022/09/30 07:47:31;;;;;;;;;;;;;;;22.10;51.48;98356.13;4491783;32;34910;-91
2022/09/30 07:49:59;;;;;;;;;;;;;;;22.26;51.15;98361.56;4474709;32;32786;-90
2022/09/30 07:52:26;;;;;;;;;;;;;;;21.97;51.69;98360.25;4476674;32;33445;-96
2022/09/30 07:54:54;;;;;;;;;;;;;;;22.02;51.74;98366.19;4490790;32;33900;-88
2022/09/30 07:57:21;;;;;;;;;;;;;;;22.46;50.55;98363.22;4491276;32;33848;-90
2022/09/30 07:59:49;;;;;;;;;;;;;;;22.33;51.10;98366.47;4492464;32;34069;-90
2022/09/30 08:02:17;;;;;;;;;;;;;;;22.22;51.49;98370.56;4491068;32;33297;-89
2022/09/30 08:04:44;;;;;;;;;;;;;;;22.40;50.94;98374.97;4463668;32;34244;-89
2022/09/30 08:07:12;;;;;;;;;;;;;;;22.46;50.76;98373.78;4462234;32;33392;-91
2022/09/30 08:09:39;;;;;;;;;;;;;;;22.54;50.65;98372.53;4475349;32;33789;-90
2022/09/30 08:12:07;;;;;;;;;;;;;;;22.25;51.17;98373.06;4473474;32;33428;-89
2022/09/30 08:14:34;;;;;;;;;;;;;;;22.15;51.66;98382.31;4461836;32;33852;-89
2022/09/30 08:17:01;;;;;;;;;;;;;;;21.17;54.06;98381.38;4472204;32;34885;-89
2022/09/30 08:19:29;;;;;;;;;;;;;;;21.45;53.45;98391.63;4489245;32;33632;-90
2022/09/30 08:21:56;;;;;;;;;;;;;;;21.45;53.57;98386.34;4474918;32;32947;-89
2022/09/30 08:24:24;;;;;;;;;;;;;;;21.60;53.42;98402.34;4473684;32;34408;-90
2022/09/30 08:26:52;;;;;;;;;;;;;;;21.05;55.03;98398.56;4489158;32;34314;-90
2022/09/30 08:29:19;;;;;;;;;;;;;;;20.87;55.39;98403.69;4471820;32;34669;-92
2022/09/30 08:32:06;;;;;;;;;;;;;;;21.19;54.94;98403.25;4489110;32;34210;-90
2022/09/30 08:34:34;;;;;;;;;;;;;;;21.46;54.38;98399.47;4462103;32;34578;-91
2022/09/30 08:37:02;;;;;;;;;;;;;;;21.56;53.89;98410.47;4489193;32;34466;-91
2022/09/30 08:39:37;;;;;;;;;;;;;;;21.25;54.76;98410.88;4475656;32;33789;-89
2022/09/30 08:42:08;;;;;;;;;;;;;;;20.44;57.24;98425.56;4475526;32;33087;-96
2022/09/30 08:44:59;;;;;;;;;;;;;;;20.44;57.38;98429.97;4479166;32;34183;-90
2022/09/30 08:47:28;;;;;;;;;;;;;;;20.81;56.44;98434.69;4474822;32;34417;-89
2022/09/30 08:49:55;;;;;;;;;;;;;;;20.77;56.72;98439.22;4488218;32;34131;-90
2022/09/30 08:52:23;;;;;;;;;;;;;;;20.71;56.28;98436.81;4487858;32;33476;-90
2022/09/30 08:55:04;;;;;;;;;;;;;;;20.76;56.69;98440.16;4477524;32;34068;-93
2022/09/30 08:57:35;;;;;;;;;;;;;;;20.87;56.43;98437.06;4465786;32;34559;-90
2022/09/30 09:00:06;;;;;;;;;;;;;;;20.79;56.78;98432.09;4480220;32;34176;-93
2022/09/30 09:02:41;;;;;;;;;;;;;;;21.16;55.92;98435.00;4462934;32;32870;-94
2022/09/30 09:05:09;;;;;;;;;;;;;;;21.79;54.30;98433.19;4463220;32;34040;-93
2022/09/30 09:07:37;;;;;;;;;;;;;;;21.62;54.90;98428.66;4460843;32;33695;-93
2022/09/30 09:10:19;;;;;;;;;;;;;;;20.98;57.21;98436.63;4473673;32;34250;-90
2022/09/30 09:12:53;;;;;;;;;;;;;;;20.98;56.83;98444.53;4480662;32;32977;-95
2022/09/30 09:15:38;;;;;;;;;;;;;;;20.94;57.56;98451.69;4478412;32;34815;-94
2022/09/30 09:18:25;;;;;;;;;;;;;;;20.49;59.01;98452.59;4486903;32;34785;-89
2022/09/30 09:20:53;;;;;;;;;;;;;;;21.20;56.72;98449.78;4487336;32;35064;-95
2022/09/30 09:23:21;;;;;;;;;;;;;;;21.07;57.24;98463.47;4472537;32;33135;-94
2022/09/30 09:25:51;;;;;;;;;;;;;;;21.07;57.33;98465.25;4488447;32;34055;-93
2022/09/30 09:28:24;;;;;;;;;;;;;;;21.03;57.40;98466.31;4471911;32;35249;-95
2022/09/30 09:30:53;;;;;;;;;;;;;;;21.37;56.20;98477.19;4462145;32;34141;-94
2022/09/30 09:33:21;;;;;;;;;;;;;;;21.23;56.24;98476.87;4471577;32;33289;-96
2022/09/30 09:35:53;;;;;;;;;;;;;;;20.39;58.91;98490.72;4479394;32;34134;-96
2022/09/30 09:38:29;;;;;;;;;;;;;;;20.70;57.89;98490.44;4468135;32;34164;-90
2022/09/30 09:40:59;;;;;;;;;;;;;;;21.50;55.57;98487.22;4463169;32;34114;-89
2022/09/30 09:43:48;;;;;;;;;;;;;;;21.68;54.95;98481.16;4482515;32;34278;-89
2022/09/30 09:46:15;;;;;;;;;;;;;;;21.40;55.51;98485.88;4464504;32;34225;-94
2022/09/30 09:48:43;;;;;;;;;;;;;;;20.97;56.90;98483.19;4473309;32;32732;-96
2022/09/30 09:51:27;;;;;;;;;;;;;;;21.56;55.32;98492.25;4479421;32;34263;-89
2022/09/30 09:53:56;;;;;;;;;;;;;;;21.38;55.97;98488.59;4463513;32;33577;-88
2022/09/30 09:59:14;;;;;;;;;;;;;;;21.33;56.24;98503.75;4481458;32;34010;-96
2022/09/30 10:01:48;;;;;;;;;;;;;;;21.90;54.68;98501.34;4481610;32;34197;-93
2022/09/30 10:04:18;;;;;;;;;;;;;;;21.50;56.05;98495.12;4481835;32;33450;-94
2022/09/30 10:06:45;;;;;;;;;;;;;;;21.41;56.64;98504.28;4481720;32;34071;-89
2022/09/30 10:09:28;;;;;;;;;;;;;;;21.93;55.22;98501.19;4494035;32;32895;-91
2022/09/30 10:12:05;;;;;;;;;;;;;;;21.96;55.22;98503.69;4486835;32;33807;-96
2022/09/30 10:14:36;;;;;;;;;;;;;;;22.17;55.01;98497.50;4466493;32;32692;-92
2022/09/30 10:17:04;;;;;;;;;;;;;;;22.33;54.46;98497.66;4478128;32;32916;-90
2022/09/30 10:19:33;;;;;;;;;;;;;;;21.64;56.67;98508.59;4476226;32;35310;-91
2022/09/30 10:22:06;;;;;;;;;;;;;;;21.83;55.61;98512.16;4476261;32;34947;-95
2022/09/30 10:24:36;;;;;;;;;;;;;;;22.24;54.35;98511.28;4477474;32;34242;-90
2022/09/30 10:27:03;;;;;;;;;;;;;;;22.38;53.46;98513.28;4475435;32;33843;-91
2022/09/30 10:29:31;;;;;;;;;;;;;;;22.08;54.45;98521.63;4479817;32;35408;-95
2022/09/30 10:31:59;;;;;;;;;;;;;;;22.30;54.14;98527.69;4462562;32;33543;-96
2022/09/30 10:34:31;;;;;;;;;;;;;;;22.41;53.68;98527.22;4475020;32;33426;-91
2022/09/30 10:37:00;;;;;;;;;;;;;;;22.34;54.58;98528.41;4469730;32;33613;-96
2022/09/30 10:39:37;;;;;;;;;;;;;;;21.42;56.28;98535.00;4457350;32;34282;-90
2022/09/30 10:42:11;;;;;;;;;;;;;;;21.95;54.84;98536.28;4459236;32;33660;-91
2022/09/30 10:44:42;;;;;;;;;;;;;;;22.23;54.03;98550.00;4461666;32;34136;-95
2022/09/30 10:47:12;;;;;;;;;;;;;;;22.36;54.17;98547.69;4461479;32;34468;-90
2022/09/30 10:50:02;;;;;;;;;;;;;;;22.34;54.13;98545.09;4448253;32;33600;-96
2022/09/30 10:52:52;;;;;;;;;;;;;;;22.74;53.78;98559.16;4458346;32;33586;-91
2022/09/30 10:55:20;;;;;;;;;;;;;;;22.00;55.74;98553.63;4450117;32;34095;-95
2022/09/30 10:57:48;;;;;;;;;;;;;;;23.02;53.53;98553.44;4456255;32;34329;-91
2022/09/30 11:00:17;;;;;;;;;;;;;;;23.44;53.07;98554.09;4456034;32;34051;-90
2022/09/30 11:02:44;;;;;;;;;;;;;;;22.47;55.10;98565.72;4465018;32;35106;-90
2022/09/30 11:05:18;;;;;;;;;;;;;;;22.93;53.96;98567.13;4461049;32;33048;-92
2022/09/30 11:07:47;;;;;;;;;;;;;;;22.86;53.32;98573.56;4458072;32;35053;-96
2022/09/30 11:10:33;;;;;;;;;;;;;;;22.96;52.51;98585.47;4458889;32;33942;-91
2022/09/30 11:13:09;;;;;;;;;;;;;;;22.83;53.07;98597.50;4458573;32;34263;-88
2022/09/30 11:15:39;;;;;;;;;;;;;;;23.00;52.94;98615.28;4459827;32;34234;-90
2022/09/30 11:18:10;;;;;;;;;;;;;;;23.64;51.67;98612.19;4473635;32;33665;-90
2022/09/30 11:20:38;;;;;;;;;;;;;;;23.37;52.28;98608.22;4460335;32;34895;-91
2022/09/30 11:23:12;;;;;;;;;;;;;;;23.54;52.34;98630.28;4450293;32;33957;-88
2022/09/30 11:25:44;;;;;;;;;;;;;;;22.54;54.49;98633.16;4454840;32;34528;-88
2022/09/30 11:28:12;;;;;;;;;;;;;;;22.27;53.58;98637.88;4453175;32;34991;-90
2022/09/30 11:30:46;;;;;;;;;;;;;;;22.97;51.34;98640.06;4452529;32;34286;-88
2022/09/30 11:33:18;;;;;;;;;;;;;;;22.23;54.57;98647.72;4441350;32;34435;-93
2022/09/30 11:35:45;;;;;;;;;;;;;;;22.43;54.79;98648.66;4456214;32;33381;-95
2022/09/30 11:38:12;;;;;;;;;;;;;;;22.55;53.32;98648.97;4454379;32;32425;-95
2022/09/30 11:40:46;;;;;;;;;;;;;;;23.22;50.65;98650.38;4454642;32;34507;-89
2022/09/30 11:43:32;;;;;;;;;;;;;;;22.14;53.46;98658.69;4451411;32;34235;-90
2022/09/30 11:46:12;;;;;;;;;;;;;;;22.11;54.24;98664.91;4446244;32;33180;-95
2022/09/30 11:48:45;;;;;;;;;;;;;;;22.17;53.71;98662.97;4452570;32;34247;-93
2022/09/30 11:51:12;;;;;;;;;;;;;;;22.03;53.81;98679.34;4449053;32;35075;-96
2022/09/30 11:54:06;;;;;;;;;;;;;;;22.03;53.95;98679.34;4456485;32;33192;-88
2022/09/30 11:56:38;;;;;;;;;;;;;;;22.61;52.35;98689.25;4439644;32;33863;-89
2022/09/30 11:59:07;;;;;;;;;;;;;;;22.08;54.55;98683.50;4451652;32;35210;-89
2022/09/30 12:01:42;;;;;;;;;;;;;;;22.41;54.05;98682.19;4453584;32;34033;-96
2022/09/30 12:04:13;;;;;;;;;;;;;;;22.46;54.11;98696.03;4452697;32;33734;-88
2022/09/30 12:06:46;;;;;;;;;;;;;;;21.59;55.68;98698.72;4451640;32;33737;-94
2022/09/30 12:09:15;;;;;;;;;;;;;;;21.91;55.63;98695.69;4454319;32;34175;-89
2022/09/30 12:11:48;;;;;;;;;;;;;;;22.94;52.53;98705.44;4446660;32;35832;-89
2022/09/30 12:14:18;;;;;;;;;;;;;;;22.51;54.40;98707.28;4450244;32;34961;-93
2022/09/30 12:16:45;;;;;;;;;;;;;;;21.28;55.17;98717.44;4454544;32;33718;-93
2022/09/30 12:19:19;;;;;;;;;;;;;;;21.48;56.41;98715.84;4471570;32;34299;-95
2022/09/30 12:21:53;;;;;;;;;;;;;;;22.00;54.80;98717.28;4469529;32;34143;-93
2022/09/30 12:24:24;;;;;;;;;;;;;;;22.19;54.97;98711.28;4468278;32;33575;-89
2022/09/30 12:26:52;;;;;;;;;;;;;;;22.35;53.96;98715.00;4454129;32;32596;-89
2022/09/30 12:32:10;;;;;;;;;;;;;;;21.46;54.25;98734.38;4470662;32;35381;-89
2022/09/30 12:35:00;;;;;;;;;;;;;;;22.16;52.64;98719.31;4482948;32;34860;-88
2022/09/30 12:37:31;;;;;;;;;;;;;;;22.96;50.79;98722.09;4482207;32;33520;-88
2022/09/30 12:40:18;;;;;;;;;;;;;;;22.40;53.00;98726.22;4468071;32;32675;-88
2022/09/30 12:42:46;;;;;;;;;;;;;;;23.08;50.49;98718.03;4458030;32;34370;-95
2022/09/30 12:45:16;;;;;;;;;;;;;;;23.37;48.11;98722.81;4482903;32;34955;-95
2022/09/30 12:47:45;;;;;;;;;;;;;;;23.06;51.43;98731.31;4468570;32;34241;-89
2022/09/30 12:50:17;;;;;;;;;;;;;;;22.55;53.06;98743.22;4468113;32;33826;-90
2022/09/30 12:52:44;;;;;;;;;;;;;;;22.70;53.11;98742.56;4466655;32;34995;-88
2022/09/30 12:55:38;;;;;;;;;;;;;;;23.44;51.51;98752.50;4468599;32;34516;-88
2022/09/30 12:58:05;;;;;;;;;;;;;;;23.08;50.43;98747.97;4465462;32;33422;-92
2022/09/30 13:00:36;;;;;;;;;;;;;;;22.95;51.23;98762.66;4483222;32;34353;-90
2022/09/30 13:03:04;;;;;;;;;;;;;;;22.85;52.47;98762.19;4470096;32;34139;-93
2022/09/30 13:05:36;;;;;;;;;;;;;;;22.56;52.21;98760.78;4469621;32;34125;-89
2022/09/30 13:08:06;;;;;;;;;;;;;;;23.87;49.55;98756.69;4482589;32;33477;-96
2022/09/30 13:10:33;;;;;;;;;;;;;;;24.03;49.04;98759.44;4481951;32;35017;-90